Time;durP1;ratioP1;P1;durP2;ratioP2;P2;SDS_P1;SDS_P2;PMS_P1;PMS_P2;Temp;Humidity;BMP_temperature;BMP_pressure;BME280_temperature;BME280_humidity;BME280_pressure;Samples;Min_cycle;Max_cycle;Signal;HPM_P1;HPM_P2
2022/01/05 00:01:14;;;;;;;8.52;6.30;;;;;;;;;;6283422;22;20016;-74
2022/01/05 00:03:40;;;;;;;9.65;6.10;;;;;;;;;;6285981;22;20003;-74
2022/01/05 00:06:06;;;;;;;10.55;6.15;;;;;;;;;;6284792;22;20321;-75
2022/01/05 00:08:33;;;;;;;8.82;5.53;;;;;;;;;;6292198;22;19996;-75
2022/01/05 00:11:00;;;;;;;10.63;6.25;;;;;;;;;;6263357;22;20773;-75
2022/01/05 00:13:26;;;;;;;11.32;6.22;;;;;;;;;;6283281;22;19999;-74
2022/01/05 00:15:54;;;;;;;11.98;6.70;;;;;;;;;;6258699;22;20366;-74
2022/01/05 00:18:20;;;;;;;8.10;5.65;;;;;;;;;;6284875;22;20043;-74
2022/01/05 00:20:46;;;;;;;9.60;6.10;;;;;;;;;;6294778;22;19992;-74
2022/01/05 00:23:13;;;;;;;9.77;5.72;;;;;;;;;;6290468;22;20006;-74
2022/01/05 00:25:41;;;;;;;10.25;6.53;;;;;;;;;;6284459;22;19983;-74
2022/01/05 00:28:08;;;;;;;9.15;5.97;;;;;;;;;;6264531;22;20012;-75
2022/01/05 00:30:40;;;;;;;9.63;5.53;;;;;;;;;;6266402;22;20016;-75
2022/01/05 00:33:08;;;;;;;8.38;5.47;;;;;;;;;;6293462;22;20440;-74
2022/01/05 00:35:35;;;;;;;9.00;6.22;;;;;;;;;;6283250;22;20004;-76
2022/01/05 00:38:01;;;;;;;11.10;6.28;;;;;;;;;;6284109;22;20008;-74
2022/01/05 00:40:27;;;;;;;11.40;5.45;;;;;;;;;;6289195;22;19984;-74
2022/01/05 00:42:55;;;;;;;10.85;5.80;;;;;;;;;;6289985;22;20073;-74
2022/01/05 00:45:22;;;;;;;9.68;6.28;;;;;;;;;;6259728;22;20333;-74
2022/01/05 00:47:48;;;;;;;8.10;5.05;;;;;;;;;;6254093;22;20004;-74
2022/01/05 00:50:14;;;;;;;10.57;5.82;;;;;;;;;;6281132;22;20000;-74
2022/01/05 00:52:40;;;;;;;9.85;5.55;;;;;;;;;;6280288;22;20418;-74
2022/01/05 00:55:07;;;;;;;8.77;5.18;;;;;;;;;;6281489;22;20049;-74
2022/01/05 00:57:33;;;;;;;8.50;5.03;;;;;;;;;;6280932;22;20012;-74
2022/01/05 00:59:59;;;;;;;10.35;5.55;;;;;;;;;;6280422;22;20441;-75
2022/01/05 01:02:25;;;;;;;10.48;5.75;;;;;;;;;;6286243;22;20061;-74
2022/01/05 01:04:52;;;;;;;11.77;6.78;;;;;;;;;;6283700;22;19999;-74
2022/01/05 01:07:18;;;;;;;8.88;5.85;;;;;;;;;;6292260;22;19984;-74
2022/01/05 01:09:44;;;;;;;12.32;6.35;;;;;;;;;;6281698;22;20018;-74
2022/01/05 01:12:10;;;;;;;8.35;5.43;;;;;;;;;;6282473;22;20002;-74
2022/01/05 01:14:36;;;;;;;7.85;4.72;;;;;;;;;;6281420;22;20078;-74
2022/01/05 01:17:02;;;;;;;7.55;5.07;;;;;;;;;;6255466;22;20003;-74
2022/01/05 01:19:33;;;;;;;7.47;4.97;;;;;;;;;;6288112;22;20449;-74
2022/01/05 01:21:59;;;;;;;7.63;5.57;;;;;;;;;;6266189;22;19992;-74
2022/01/05 01:24:25;;;;;;;7.47;4.03;;;;;;;;;;6289969;22;19999;-74
2022/01/05 01:26:51;;;;;;;8.05;4.80;;;;;;;;;;6294256;22;20333;-74
2022/01/05 01:29:17;;;;;;;8.43;5.28;;;;;;;;;;6268532;22;20022;-73
2022/01/05 01:31:43;;;;;;;7.20;4.38;;;;;;;;;;6268036;22;19988;-73
2022/01/05 01:34:12;;;;;;;7.20;4.50;;;;;;;;;;6300467;22;20004;-74
2022/01/05 01:36:38;;;;;;;6.95;4.45;;;;;;;;;;6287894;22;19995;-74
2022/01/05 01:39:05;;;;;;;9.48;5.00;;;;;;;;;;6281625;22;20433;-74
2022/01/05 01:41:31;;;;;;;5.95;4.47;;;;;;;;;;6283956;22;19999;-74
2022/01/05 01:43:57;;;;;;;7.50;4.88;;;;;;;;;;6292546;22;20421;-74
2022/01/05 01:46:23;;;;;;;6.60;4.80;;;;;;;;;;6290406;22;20000;-74
2022/01/05 01:48:49;;;;;;;8.15;4.90;;;;;;;;;;6293974;22;19999;-74
2022/01/05 01:51:16;;;;;;;6.82;4.90;;;;;;;;;;6295154;22;20082;-74
2022/01/05 01:53:42;;;;;;;6.65;4.28;;;;;;;;;;6290761;22;20042;-74
2022/01/05 01:56:09;;;;;;;7.13;4.95;;;;;;;;;;6286519;22;19987;-75
2022/01/05 01:58:36;;;;;;;5.65;3.85;;;;;;;;;;6294372;22;20388;-75
2022/01/05 02:01:04;;;;;;;6.65;4.80;;;;;;;;;;6289233;22;20012;-75
2022/01/05 02:03:31;;;;;;;9.50;5.15;;;;;;;;;;6288322;22;19999;-74
2022/01/05 02:05:57;;;;;;;7.55;4.80;;;;;;;;;;6260236;22;20008;-74
2022/01/05 02:08:23;;;;;;;8.45;5.10;;;;;;;;;;6289143;22;19995;-73
2022/01/05 02:10:53;;;;;;;6.65;4.50;;;;;;;;;;6288903;22;20010;-74
2022/01/05 02:13:21;;;;;;;9.40;5.10;;;;;;;;;;6265930;22;20051;-75
2022/01/05 02:15:47;;;;;;;7.32;4.40;;;;;;;;;;6285326;22;20003;-74
2022/01/05 02:21:07;;;;;;;9.30;5.45;;;;;;;;;;6297973;22;20050;-74
2022/01/05 02:23:39;;;;;;;5.95;4.28;;;;;;;;;;6267067;22;20000;-74
2022/01/05 02:26:06;;;;;;;7.45;4.85;;;;;;;;;;6284086;22;20010;-75
2022/01/05 02:28:32;;;;;;;8.20;4.75;;;;;;;;;;6293814;22;20082;-74
2022/01/05 02:31:03;;;;;;;5.32;3.70;;;;;;;;;;6291825;22;20004;-73
2022/01/05 02:33:29;;;;;;;8.35;4.75;;;;;;;;;;6289693;22;19987;-75
2022/01/05 02:35:58;;;;;;;7.63;5.00;;;;;;;;;;6293978;22;20035;-74
2022/01/05 02:38:29;;;;;;;8.40;4.60;;;;;;;;;;6268033;22;20170;-75
2022/01/05 02:40:55;;;;;;;7.85;4.90;;;;;;;;;;6289481;22;20011;-74
2022/01/05 02:43:23;;;;;;;8.68;5.32;;;;;;;;;;6285125;22;20441;-74
2022/01/05 02:45:52;;;;;;;7.90;4.53;;;;;;;;;;6284576;22;19996;-75
2022/01/05 02:48:18;;;;;;;5.55;3.85;;;;;;;;;;6288508;22;20019;-73
2022/01/05 02:50:44;;;;;;;5.63;3.97;;;;;;;;;;6297605;22;19980;-73
2022/01/05 02:53:10;;;;;;;5.68;3.90;;;;;;;;;;6294640;22;20011;-74
2022/01/05 02:55:36;;;;;;;5.53;3.72;;;;;;;;;;6293896;22;20000;-74
2022/01/05 02:58:02;;;;;;;12.00;4.20;;;;;;;;;;6297455;22;19991;-73
2022/01/05 03:00:28;;;;;;;6.97;3.80;;;;;;;;;;6277415;22;20020;-73
2022/01/05 03:02:54;;;;;;;6.97;4.20;;;;;;;;;;6225591;23;20353;-73
2022/01/05 03:05:20;;;;;;;5.80;4.15;;;;;;;;;;6262500;23;20008;-73
2022/01/05 03:07:47;;;;;;;6.15;4.45;;;;;;;;;;6230502;23;20338;-74
2022/01/05 03:10:14;;;;;;;6.28;4.22;;;;;;;;;;6255185;23;20007;-74
2022/01/05 03:12:42;;;;;;;5.78;4.43;;;;;;;;;;6260515;23;20004;-74
2022/01/05 03:15:09;;;;;;;6.55;4.03;;;;;;;;;;6233277;23;19992;-74
2022/01/05 03:17:35;;;;;;;7.20;4.45;;;;;;;;;;6255729;23;20410;-74
2022/01/05 03:20:01;;;;;;;6.10;4.18;;;;;;;;;;6256589;23;20069;-74
2022/01/05 03:22:27;;;;;;;8.35;4.10;;;;;;;;;;6257600;22;20004;-75
2022/01/05 03:24:53;;;;;;;7.07;4.20;;;;;;;;;;6257147;23;20027;-74
2022/01/05 03:27:19;;;;;;;6.05;3.80;;;;;;;;;;6258753;23;20004;-75
2022/01/05 03:29:45;;;;;;;6.28;3.90;;;;;;;;;;6257454;23;20065;-75
2022/01/05 03:32:12;;;;;;;4.50;3.67;;;;;;;;;;6264428;23;20071;-74
2022/01/05 03:34:38;;;;;;;6.47;4.20;;;;;;;;;;6262587;23;20023;-75
2022/01/05 03:37:04;;;;;;;8.40;4.57;;;;;;;;;;6257483;23;19980;-75
2022/01/05 03:39:33;;;;;;;6.57;4.47;;;;;;;;;;6257235;23;20016;-75
2022/01/05 03:42:00;;;;;;;8.60;4.45;;;;;;;;;;6254784;23;20007;-74
2022/01/05 03:44:27;;;;;;;7.00;4.97;;;;;;;;;;6232140;23;19995;-74
2022/01/05 03:46:53;;;;;;;9.68;5.05;;;;;;;;;;6258339;23;20039;-74
2022/01/05 03:49:19;;;;;;;5.97;4.63;;;;;;;;;;6261120;22;20016;-74
2022/01/05 03:51:45;;;;;;;6.97;4.70;;;;;;;;;;6258107;22;20437;-74
2022/01/05 03:54:12;;;;;;;7.03;4.55;;;;;;;;;;6254600;23;19984;-75
2022/01/05 03:56:39;;;;;;;7.57;4.70;;;;;;;;;;6265049;23;19997;-74
2022/01/05 03:59:07;;;;;;;9.75;4.97;;;;;;;;;;6229850;23;19996;-75
2022/01/05 04:01:33;;;;;;;8.48;5.10;;;;;;;;;;6258464;22;20045;-74
2022/01/05 04:04:01;;;;;;;8.82;5.25;;;;;;;;;;6257337;22;20345;-74
2022/01/05 04:06:29;;;;;;;8.20;5.20;;;;;;;;;;6287300;22;19976;-74
2022/01/05 04:08:58;;;;;;;8.95;5.18;;;;;;;;;;6267769;22;20008;-75
2022/01/05 04:11:30;;;;;;;8.73;5.25;;;;;;;;;;6295856;22;20006;-74
2022/01/05 04:14:04;;;;;;;8.13;4.45;;;;;;;;;;6234047;22;20522;-75
2022/01/05 04:16:40;;;;;;;6.38;4.90;;;;;;;;;;6267267;22;20007;-74
2022/01/05 04:19:06;;;;;;;8.68;5.30;;;;;;;;;;6298045;22;19998;-74
2022/01/05 04:21:32;;;;;;;7.85;5.45;;;;;;;;;;6288299;22;20003;-75
2022/01/05 04:23:58;;;;;;;7.68;5.65;;;;;;;;;;6284860;22;20426;-75
2022/01/05 04:26:25;;;;;;;16.70;6.85;;;;;;;;;;6291601;22;20502;-74
2022/01/05 04:29:13;;;;;;;9.18;5.88;;;;;;;;;;6263083;22;20067;-74
2022/01/05 04:31:40;;;;;;;8.00;5.75;;;;;;;;;;6265706;22;20479;-75
2022/01/05 04:34:06;;;;;;;8.77;5.55;;;;;;;;;;6286533;22;20007;-75
2022/01/05 04:36:33;;;;;;;9.02;5.88;;;;;;;;;;6284695;22;19996;-75
2022/01/05 04:38:59;;;;;;;11.68;7.13;;;;;;;;;;6285144;22;20034;-74
2022/01/05 04:41:25;;;;;;;14.20;9.68;;;;;;;;;;6286104;22;20000;-75
2022/01/05 04:43:51;;;;;;;14.10;10.20;;;;;;;;;;6262003;22;20101;-75
2022/01/05 04:46:17;;;;;;;11.82;6.88;;;;;;;;;;6267113;22;20012;-75
2022/01/05 04:48:43;;;;;;;9.02;6.30;;;;;;;;;;6300420;22;19987;-74
2022/01/05 04:51:09;;;;;;;11.63;6.65;;;;;;;;;;6289723;22;20015;-77
2022/01/05 04:53:35;;;;;;;9.73;6.47;;;;;;;;;;6257197;22;20394;-73
2022/01/05 04:56:01;;;;;;;9.63;6.07;;;;;;;;;;6281105;22;20082;-75
2022/01/05 04:58:28;;;;;;;7.95;5.85;;;;;;;;;;6280374;22;20008;-77
2022/01/05 05:00:54;;;;;;;8.80;5.55;;;;;;;;;;6253266;22;20004;-74
2022/01/05 05:03:20;;;;;;;6.63;4.55;;;;;;;;;;6288504;22;20075;-74
2022/01/05 05:05:46;;;;;;;7.70;4.75;;;;;;;;;;6269362;22;20010;-76
2022/01/05 05:08:12;;;;;;;7.05;4.57;;;;;;;;;;6292614;22;20011;-78
2022/01/05 05:10:38;;;;;;;8.30;4.72;;;;;;;;;;6287737;22;20026;-77
2022/01/05 05:13:11;;;;;;;7.57;4.70;;;;;;;;;;6258412;22;20337;-76
2022/01/05 05:15:37;;;;;;;8.35;5.20;;;;;;;;;;6256687;22;20086;-75
2022/01/05 05:18:03;;;;;;;7.15;4.93;;;;;;;;;;6285536;22;20000;-76
2022/01/05 05:20:30;;;;;;;7.85;5.00;;;;;;;;;;6286578;22;20003;-75
2022/01/05 05:22:58;;;;;;;6.15;4.57;;;;;;;;;;6286779;22;19996;-76
2022/01/05 05:25:28;;;;;;;6.30;4.45;;;;;;;;;;6255361;22;20694;-76
2022/01/05 05:27:54;;;;;;;10.30;6.72;;;;;;;;;;6258086;22;20000;-76
2022/01/05 05:30:23;;;;;;;8.68;5.28;;;;;;;;;;6282586;22;20002;-75
2022/01/05 05:32:49;;;;;;;8.93;4.72;;;;;;;;;;6259138;22;20034;-76
2022/01/05 05:35:23;;;;;;;9.82;5.40;;;;;;;;;;6287436;22;20460;-75
2022/01/05 05:37:51;;;;;;;9.52;5.20;;;;;;;;;;6284094;22;20030;-75
2022/01/05 05:40:17;;;;;;;6.90;5.40;;;;;;;;;;6290997;22;20055;-76
2022/01/05 05:42:43;;;;;;;10.73;5.47;;;;;;;;;;6292071;22;20022;-76
2022/01/05 05:45:09;;;;;;;7.32;4.90;;;;;;;;;;6293269;22;20502;-78
2022/01/05 05:47:36;;;;;;;7.57;5.30;;;;;;;;;;6291070;22;20003;-77
2022/01/05 05:50:06;;;;;;;6.60;4.82;;;;;;;;;;6291290;22;20061;-76
2022/01/05 05:52:32;;;;;;;9.10;4.90;;;;;;;;;;6290937;22;20014;-76
2022/01/05 05:54:58;;;;;;;6.43;4.45;;;;;;;;;;6290603;22;20025;-77
2022/01/05 05:57:24;;;;;;;13.70;5.65;;;;;;;;;;6293812;22;19996;-76
2022/01/05 05:59:51;;;;;;;8.63;5.10;;;;;;;;;;6290116;22;20082;-76
2022/01/05 06:02:17;;;;;;;6.88;4.82;;;;;;;;;;6290679;22;20061;-76
2022/01/05 06:04:44;;;;;;;13.32;4.75;;;;;;;;;;6269261;22;20000;-75
2022/01/05 06:07:10;;;;;;;9.60;5.38;;;;;;;;;;6290052;22;20000;-76
2022/01/05 06:09:37;;;;;;;9.13;5.18;;;;;;;;;;6291434;22;20000;-78
2022/01/05 06:12:03;;;;;;;7.10;4.72;;;;;;;;;;6289219;22;20004;-76
2022/01/05 06:14:31;;;;;;;10.07;6.63;;;;;;;;;;6294421;22;20006;-78
2022/01/05 06:16:57;;;;;;;11.25;5.80;;;;;;;;;;6284585;22;20023;-76
2022/01/05 06:19:23;;;;;;;7.05;5.22;;;;;;;;;;6285049;22;20004;-76
2022/01/05 06:21:50;;;;;;;7.13;5.35;;;;;;;;;;6287167;22;20026;-75
2022/01/05 06:24:16;;;;;;;12.82;6.95;;;;;;;;;;6290003;22;20031;-77
2022/01/05 06:26:43;;;;;;;10.98;6.55;;;;;;;;;;6262857;22;20016;-76
2022/01/05 06:29:09;;;;;;;12.13;6.63;;;;;;;;;;6257558;22;19999;-77
2022/01/05 06:31:35;;;;;;;11.63;5.30;;;;;;;;;;6288706;22;20004;-77
2022/01/05 06:34:01;;;;;;;10.63;5.30;;;;;;;;;;6288780;22;20000;-78
2022/01/05 06:36:27;;;;;;;12.57;5.68;;;;;;;;;;6292941;22;20003;-76
2022/01/05 06:38:53;;;;;;;8.52;5.57;;;;;;;;;;6292718;22;20336;-77
2022/01/05 06:41:21;;;;;;;8.63;6.00;;;;;;;;;;6291040;22;20054;-79
2022/01/05 06:43:47;;;;;;;10.75;6.03;;;;;;;;;;6293704;22;20098;-77
2022/01/05 06:46:13;;;;;;;8.55;4.85;;;;;;;;;;6295625;22;19979;-76
2022/01/05 06:48:55;;;;;;;9.40;5.25;;;;;;;;;;6293218;22;20011;-79
2022/01/05 06:51:24;;;;;;;12.85;6.88;;;;;;;;;;6291251;22;20000;-76
2022/01/05 06:53:50;;;;;;;10.98;6.60;;;;;;;;;;6287394;22;20019;-77
2022/01/05 06:56:18;;;;;;;8.93;5.82;;;;;;;;;;6289023;22;20020;-76
2022/01/05 06:58:44;;;;;;;9.10;5.47;;;;;;;;;;6294184;22;20047;-76
2022/01/05 07:01:10;;;;;;;7.20;4.90;;;;;;;;;;6292806;22;20008;-75
2022/01/05 07:03:36;;;;;;;10.38;5.50;;;;;;;;;;6291123;22;20468;-78
2022/01/05 07:06:05;;;;;;;8.57;5.22;;;;;;;;;;6291894;22;20445;-76
2022/01/05 07:08:31;;;;;;;10.40;6.07;;;;;;;;;;6290608;22;19995;-76
2022/01/05 07:10:57;;;;;;;12.25;6.18;;;;;;;;;;6265415;22;20007;-77
2022/01/05 07:13:23;;;;;;;14.95;8.95;;;;;;;;;;6293462;22;19999;-76
2022/01/05 07:15:50;;;;;;;9.27;5.95;;;;;;;;;;6289668;22;19996;-75
2022/01/05 07:18:16;;;;;;;9.70;6.38;;;;;;;;;;6288219;22;20006;-76
2022/01/05 07:20:42;;;;;;;10.10;5.25;;;;;;;;;;6289627;22;20004;-78
2022/01/05 07:23:10;;;;;;;8.65;5.78;;;;;;;;;;6257156;22;20325;-74
2022/01/05 07:25:36;;;;;;;9.90;5.20;;;;;;;;;;6287571;22;20102;-75
2022/01/05 07:28:02;;;;;;;13.63;6.70;;;;;;;;;;6285895;22;20000;-77
2022/01/05 07:30:29;;;;;;;7.95;5.35;;;;;;;;;;6287614;22;20000;-74
2022/01/05 07:32:56;;;;;;;13.18;6.80;;;;;;;;;;6282307;22;19999;-75
2022/01/05 07:35:22;;;;;;;8.35;5.47;;;;;;;;;;6257748;22;20002;-74
2022/01/05 07:37:48;;;;;;;8.77;5.60;;;;;;;;;;6285885;22;20074;-74
2022/01/05 07:40:14;;;;;;;9.13;5.28;;;;;;;;;;6282279;22;20486;-75
2022/01/05 07:42:40;;;;;;;12.13;5.70;;;;;;;;;;6250367;22;20430;-74
2022/01/05 07:45:09;;;;;;;10.82;6.22;;;;;;;;;;6287600;22;20083;-73
2022/01/05 07:47:40;;;;;;;17.40;7.93;;;;;;;;;;6286078;22;20048;-77
2022/01/05 07:50:14;;;;;;;7.97;4.80;;;;;;;;;;6294241;22;20022;-76
2022/01/05 07:52:40;;;;;;;9.15;5.18;;;;;;;;;;6290296;22;20053;-75
2022/01/05 07:55:07;;;;;;;7.10;4.90;;;;;;;;;;6261496;22;20008;-74
2022/01/05 07:57:36;;;;;;;11.30;6.40;;;;;;;;;;6279858;22;20008;-76
2022/01/05 08:00:03;;;;;;;6.57;4.57;;;;;;;;;;6277811;22;20007;-74
2022/01/05 08:02:29;;;;;;;7.45;4.55;;;;;;;;;;6284453;22;20043;-79
2022/01/05 08:04:55;;;;;;;13.52;4.30;;;;;;;;;;6286181;22;20051;-74
2022/01/05 08:07:21;;;;;;;9.43;5.10;;;;;;;;;;6283239;22;20000;-76
2022/01/05 08:09:47;;;;;;;7.20;4.38;;;;;;;;;;6256044;22;20007;-75
2022/01/05 08:12:13;;;;;;;11.55;4.22;;;;;;;;;;6278584;22;20000;-72
2022/01/05 08:14:39;;;;;;;6.72;4.80;;;;;;;;;;6278195;22;20003;-74
2022/01/05 08:17:05;;;;;;;6.43;4.35;;;;;;;;;;6277076;22;20331;-73
2022/01/05 08:19:31;;;;;;;5.85;4.55;;;;;;;;;;6277684;22;20012;-74
2022/01/05 08:21:59;;;;;;;6.35;4.15;;;;;;;;;;6280094;22;20077;-78
2022/01/05 08:24:26;;;;;;;6.55;4.35;;;;;;;;;;6254939;22;20018;-77
2022/01/05 08:26:53;;;;;;;6.90;4.40;;;;;;;;;;6289209;22;20008;-74
2022/01/05 08:29:19;;;;;;;5.55;3.65;;;;;;;;;;6300595;22;20015;-77
2022/01/05 08:31:45;;;;;;;8.82;4.80;;;;;;;;;;6301263;22;19996;-69
2022/01/05 08:34:11;;;;;;;5.22;4.28;;;;;;;;;;6296942;22;19999;-74
2022/01/05 08:36:37;;;;;;;6.63;4.30;;;;;;;;;;6280146;22;20004;-73
2022/01/05 08:39:04;;;;;;;6.40;4.63;;;;;;;;;;6280204;22;20047;-74
2022/01/05 08:41:30;;;;;;;9.10;4.72;;;;;;;;;;6279964;22;19996;-75
2022/01/05 08:43:56;;;;;;;8.45;4.20;;;;;;;;;;6280187;22;20465;-74
2022/01/05 08:46:22;;;;;;;9.13;6.13;;;;;;;;;;6280259;22;20053;-74
2022/01/05 08:48:51;;;;;;;6.10;4.30;;;;;;;;;;6286244;22;20003;-76
2022/01/05 08:51:18;;;;;;;7.35;4.35;;;;;;;;;;6285912;22;20010;-75
2022/01/05 08:53:44;;;;;;;5.55;4.30;;;;;;;;;;6286318;22;20008;-73
2022/01/05 08:56:10;;;;;;;12.32;8.20;;;;;;;;;;6277835;22;20087;-74
2022/01/05 08:58:36;;;;;;;8.32;6.05;;;;;;;;;;6278366;22;20035;-74
2022/01/05 09:01:03;;;;;;;6.85;4.40;;;;;;;;;;6277914;22;19996;-74
2022/01/05 09:03:32;;;;;;;11.20;5.22;;;;;;;;;;6277515;22;20000;-74
2022/01/05 09:06:00;;;;;;;10.20;5.03;;;;;;;;;;6281748;22;19992;-75
2022/01/05 09:08:26;;;;;;;6.93;5.10;;;;;;;;;;6258160;22;20006;-75
2022/01/05 09:10:53;;;;;;;5.78;4.32;;;;;;;;;;6261460;22;20008;-78
2022/01/05 09:13:28;;;;;;;6.95;4.28;;;;;;;;;;6267858;22;20056;-76
2022/01/05 09:15:55;;;;;;;7.18;4.82;;;;;;;;;;6272119;22;20077;-75
2022/01/05 09:18:21;;;;;;;10.18;4.78;;;;;;;;;;6253461;22;20004;-74
2022/01/05 09:20:47;;;;;;;6.03;4.25;;;;;;;;;;6281439;22;20014;-74
2022/01/05 09:23:13;;;;;;;7.95;4.53;;;;;;;;;;6256022;22;20341;-73
2022/01/05 09:25:39;;;;;;;8.07;4.50;;;;;;;;;;6286215;22;20023;-74
2022/01/05 09:28:05;;;;;;;10.48;5.20;;;;;;;;;;6293072;22;19988;-76
2022/01/05 09:30:31;;;;;;;9.63;5.65;;;;;;;;;;6259886;22;20026;-77
2022/01/05 09:32:58;;;;;;;6.47;4.53;;;;;;;;;;6290898;22;20004;-76
2022/01/05 09:35:40;;;;;;;9.60;5.53;;;;;;;;;;6262799;22;20011;-77
2022/01/05 09:41:56;;;;;;;8.38;5.78;;;;;;;;;;6290082;22;20023;-77
2022/01/05 09:44:07;;;;;;;13.20;6.65;;;;;;;;;;6243643;22;20015;-74
2022/01/05 09:46:58;;;;;;;11.57;7.05;;;;;;;;;;6285886;22;20004;-77
2022/01/05 09:49:30;;;;;;;7.38;4.53;;;;;;;;;;6281006;22;20007;-74
2022/01/05 09:52:04;;;;;;;5.30;4.43;;;;;;;;;;6289655;22;20002;-78
2022/01/05 09:55:01;;;;;;;8.52;6.15;;;;;;;;;;6295492;22;19991;-77
2022/01/05 09:57:48;;;;;;;12.15;6.35;;;;;;;;;;6233709;23;20419;-77
2022/01/05 10:00:19;;;;;;;14.02;6.38;;;;;;;;;;6211169;23;19992;-75
2022/01/05 10:02:53;;;;;;;6.97;4.70;;;;;;;;;;6221031;23;20001;-74
2022/01/05 10:05:19;;;;;;;8.57;5.60;;;;;;;;;;6216534;23;20016;-74
2022/01/05 10:07:45;;;;;;;6.40;4.47;;;;;;;;;;6216359;23;20007;-75
2022/01/05 10:10:17;;;;;;;7.53;4.65;;;;;;;;;;6221820;23;20074;-76
2022/01/05 10:12:45;;;;;;;6.72;4.80;;;;;;;;;;6197513;23;20064;-74
2022/01/05 10:15:15;;;;;;;9.93;7.70;;;;;;;;;;6229540;23;20112;-74
2022/01/05 10:18:11;;;;;;;16.13;6.05;;;;;;;;;;6238520;23;20024;-73
2022/01/05 10:20:37;;;;;;;8.85;5.60;;;;;;;;;;6207991;23;20015;-73
2022/01/05 10:23:08;;;;;;;8.95;6.07;;;;;;;;;;6230929;23;20000;-77
2022/01/05 10:25:34;;;;;;;8.15;5.68;;;;;;;;;;6196137;23;20024;-75
2022/01/05 10:28:04;;;;;;;12.55;6.18;;;;;;;;;;6220649;23;20058;-73
2022/01/05 10:30:45;;;;;;;8.95;5.22;;;;;;;;;;6246938;23;20004;-74
2022/01/05 10:33:12;;;;;;;6.30;5.18;;;;;;;;;;6249427;22;20004;-73
2022/01/05 10:35:38;;;;;;;12.63;5.32;;;;;;;;;;6246197;22;20350;-76
2022/01/05 10:38:26;;;;;;;11.48;7.43;;;;;;;;;;6248047;23;20531;-78
2022/01/05 10:40:54;;;;;;;6.75;4.50;;;;;;;;;;6249336;23;20000;-77
2022/01/05 10:43:20;;;;;;;7.65;3.92;;;;;;;;;;6252567;23;20004;-77
2022/01/05 10:45:47;;;;;;;10.85;4.50;;;;;;;;;;6257051;23;20004;-78
2022/01/05 10:48:13;;;;;;;7.00;4.88;;;;;;;;;;6254763;23;19996;-77
2022/01/05 10:50:44;;;;;;;8.43;6.00;;;;;;;;;;6255016;23;20038;-76
2022/01/05 10:53:14;;;;;;;11.48;8.45;;;;;;;;;;6256771;23;20003;-78
2022/01/05 10:55:43;;;;;;;9.00;7.45;;;;;;;;;;6257335;23;20054;-76
2022/01/05 10:58:17;;;;;;;8.80;5.80;;;;;;;;;;6251665;22;20000;-76
2022/01/05 11:00:43;;;;;;;;;;;;;;;;;;6252068;23;20015;-71
2022/01/05 11:03:28;;;;;;;11.05;6.15;;;;;;;;;;6259268;23;19899;-73
2022/01/05 11:06:13;;;;;;;11.60;5.68;;;;;;;;;;6251622;23;20012;-76
2022/01/05 11:08:59;;;;;;;10.00;5.82;;;;;;;;;;6248646;23;20008;-72
2022/01/05 11:11:49;;;;;;;10.10;6.35;;;;;;;;;;6252599;23;20455;-76
2022/01/05 11:14:28;;;;;;;13.40;6.78;;;;;;;;;;6258437;23;20009;-77
2022/01/05 11:17:06;;;;;;;17.23;8.82;;;;;;;;;;6246947;23;20022;-73
2022/01/05 11:19:34;;;;;;;14.82;8.60;;;;;;;;;;6250275;23;20008;-76
2022/01/05 11:22:03;;;;;;;9.77;5.60;;;;;;;;;;6251792;22;20004;-75
2022/01/05 11:24:31;;;;;;;13.55;5.50;;;;;;;;;;6249197;23;20004;-76
2022/01/05 11:26:57;;;;;;;7.25;5.03;;;;;;;;;;6247116;23;20027;-74
2022/01/05 11:29:28;;;;;;;12.38;6.57;;;;;;;;;;6249512;23;20410;-72
2022/01/05 11:32:11;;;;;;;13.90;7.00;;;;;;;;;;6251236;23;20010;-74
2022/01/05 11:35:05;;;;;;;14.93;6.85;;;;;;;;;;6252213;23;20059;-72
2022/01/05 11:37:32;;;;;;;10.50;6.90;;;;;;;;;;6258802;23;20008;-73
2022/01/05 11:39:58;;;;;;;14.77;7.10;;;;;;;;;;6248788;23;20015;-72
2022/01/05 11:42:38;;;;;;;17.20;8.32;;;;;;;;;;6250579;23;19996;-72
2022/01/05 11:45:12;;;;;;;13.27;8.43;;;;;;;;;;6252629;23;20000;-72
2022/01/05 11:47:41;;;;;;;12.43;7.10;;;;;;;;;;6251803;23;20023;-74
2022/01/05 11:50:24;;;;;;;24.63;8.65;;;;;;;;;;6220967;23;20037;-74
2022/01/05 11:52:57;;;;;;;15.48;7.50;;;;;;;;;;6190916;23;20013;-76
2022/01/05 11:55:23;;;;;;;13.27;5.47;;;;;;;;;;6213578;23;20340;-75
2022/01/05 11:58:11;;;;;;;6.68;4.32;;;;;;;;;;6217314;23;20004;-75
2022/01/05 12:00:37;;;;;;;14.45;7.15;;;;;;;;;;6190394;23;20036;-74
2022/01/05 12:03:03;;;;;;;11.98;7.07;;;;;;;;;;6213103;23;20428;-75
2022/01/05 12:05:50;;;;;;;20.50;9.60;;;;;;;;;;6212389;23;20000;-75
2022/01/05 12:08:34;;;;;;;15.88;8.25;;;;;;;;;;6214519;23;20000;-77
2022/01/05 12:11:01;;;;;;;21.23;11.10;;;;;;;;;;6213968;23;20007;-75
2022/01/05 12:13:37;;;;;;;25.30;13.35;;;;;;;;;;6187945;23;20370;-73
2022/01/05 12:16:04;;;;;;;23.40;12.73;;;;;;;;;;6214307;23;20027;-75
2022/01/05 12:18:30;;;;;;;16.95;8.20;;;;;;;;;;6188470;23;20358;-74
2022/01/05 12:20:58;;;;;;;12.85;6.55;;;;;;;;;;6227147;23;20015;-73
2022/01/05 12:23:26;;;;;;;8.40;5.40;;;;;;;;;;6245996;23;19996;-74
2022/01/05 12:26:05;;;;;;;8.18;5.22;;;;;;;;;;6243596;23;20051;-73
2022/01/05 12:28:33;;;;;;;15.45;6.03;;;;;;;;;;6247348;22;19996;-78
2022/01/05 12:30:59;;;;;;;11.45;6.20;;;;;;;;;;6253387;23;20011;-76
2022/01/05 12:33:25;;;;;;;10.15;6.47;;;;;;;;;;6252998;23;20000;-74
2022/01/05 12:36:02;;;;;;;11.13;6.75;;;;;;;;;;6249041;23;20031;-72
2022/01/05 12:38:34;;;;;;;9.80;5.90;;;;;;;;;;6245816;23;20390;-74
2022/01/05 12:41:20;;;;;;;10.90;7.07;;;;;;;;;;6246385;23;20008;-73
2022/01/05 12:43:46;;;;;;;15.93;7.35;;;;;;;;;;6245960;22;20035;-74
2022/01/05 12:46:13;;;;;;;13.27;7.40;;;;;;;;;;6245848;23;20004;-75
2022/01/05 12:48:43;;;;;;;12.65;7.40;;;;;;;;;;6246098;22;20008;-73
2022/01/05 12:51:12;;;;;;;12.70;7.20;;;;;;;;;;6246959;22;19996;-73
2022/01/05 12:53:50;;;;;;;17.95;8.23;;;;;;;;;;6246831;23;20466;-73
2022/01/05 12:56:20;;;;;;;14.82;7.53;;;;;;;;;;6249824;23;20032;-74
2022/01/05 12:58:48;;;;;;;10.82;6.97;;;;;;;;;;6246254;23;20397;-73
2022/01/05 13:01:14;;;;;;;12.70;7.90;;;;;;;;;;6248443;23;20327;-73
2022/01/05 13:03:40;;;;;;;11.82;6.93;;;;;;;;;;6252305;23;20426;-72
2022/01/05 13:06:18;;;;;;;10.55;6.68;;;;;;;;;;6256308;23;20001;-72
2022/01/05 13:08:52;;;;;;;14.18;6.50;;;;;;;;;;6248816;22;20035;-72
2022/01/05 13:11:43;;;;;;;9.85;5.60;;;;;;;;;;6253077;22;20027;-75
2022/01/05 13:14:30;;;;;;;11.60;5.75;;;;;;;;;;6247194;22;20304;-74
2022/01/05 13:17:00;;;;;;;16.42;6.40;;;;;;;;;;6249963;22;20382;-75
2022/01/05 13:19:41;;;;;;;11.10;5.18;;;;;;;;;;6248108;22;20023;-75
2022/01/05 13:22:12;;;;;;;9.07;5.50;;;;;;;;;;6249454;22;20004;-75
2022/01/05 13:24:43;;;;;;;10.15;5.53;;;;;;;;;;6249941;23;20007;-74
2022/01/05 13:27:11;;;;;;;9.75;5.43;;;;;;;;;;6278868;22;20434;-76
2022/01/05 13:29:37;;;;;;;13.93;6.05;;;;;;;;;;6280398;22;20011;-75
2022/01/05 13:32:08;;;;;;;13.05;5.97;;;;;;;;;;6280835;22;20069;-76
2022/01/05 13:34:34;;;;;;;8.10;5.18;;;;;;;;;;6287309;22;20052;-74
2022/01/05 13:37:01;;;;;;;9.43;5.38;;;;;;;;;;6254685;22;20004;-75
2022/01/05 13:39:46;;;;;;;9.73;4.95;;;;;;;;;;6284223;22;20012;-73
2022/01/05 13:42:22;;;;;;;15.63;6.30;;;;;;;;;;6261514;22;19996;-74
2022/01/05 13:44:48;;;;;;;12.02;5.80;;;;;;;;;;6257830;22;20353;-75
2022/01/05 13:47:16;;;;;;;11.30;6.20;;;;;;;;;;6261572;22;20008;-75
2022/01/05 13:50:02;;;;;;;12.63;6.78;;;;;;;;;;6286102;22;20401;-76
2022/01/05 13:52:29;;;;;;;10.10;7.10;;;;;;;;;;6278351;22;20088;-76
2022/01/05 13:54:55;;;;;;;9.35;6.25;;;;;;;;;;6277040;22;20449;-73
2022/01/05 13:57:39;;;;;;;12.93;7.40;;;;;;;;;;6251540;22;20008;-76
2022/01/05 14:00:10;;;;;;;15.52;8.88;;;;;;;;;;6252589;22;20012;-75
2022/01/05 14:02:39;;;;;;;10.05;6.05;;;;;;;;;;6278922;22;19996;-78
2022/01/05 14:05:06;;;;;;;12.68;7.65;;;;;;;;;;6279526;22;20330;-72
2022/01/05 14:07:43;;;;;;;14.02;7.60;;;;;;;;;;6249402;22;20382;-72
2022/01/05 14:10:14;;;;;;;18.35;9.15;;;;;;;;;;6278044;22;20000;-74
2022/01/05 14:12:45;;;;;;;17.90;10.07;;;;;;;;;;6280472;22;20314;-73
2022/01/05 14:15:11;;;;;;;18.73;9.82;;;;;;;;;;6277299;22;20436;-73
2022/01/05 14:17:41;;;;;;;19.13;12.10;;;;;;;;;;6248017;22;20071;-75
2022/01/05 14:20:17;;;;;;;41.85;10.45;;;;;;;;;;6254009;22;20038;-72
2022/01/05 14:22:44;;;;;;;17.88;8.98;;;;;;;;;;6254062;22;20000;-73
2022/01/05 14:25:10;;;;;;;12.95;8.82;;;;;;;;;;6288991;22;20014;-72
2022/01/05 14:27:38;;;;;;;26.42;11.48;;;;;;;;;;6275893;22;20012;-72
2022/01/05 14:30:08;;;;;;;22.20;12.68;;;;;;;;;;6250223;22;20090;-72
2022/01/05 14:32:36;;;;;;;17.58;10.07;;;;;;;;;;6276462;22;20078;-72
2022/01/05 14:35:11;;;;;;;15.95;11.00;;;;;;;;;;6276950;22;20003;-72
2022/01/05 14:37:58;;;;;;;17.70;10.90;;;;;;;;;;6250631;22;20023;-72
2022/01/05 14:40:28;;;;;;;20.00;10.52;;;;;;;;;;6250272;22;20460;-72
2022/01/05 14:42:59;;;;;;;14.38;8.63;;;;;;;;;;6276562;22;20082;-70
2022/01/05 14:46:00;;;;;;;15.05;8.52;;;;;;;;;;6251730;22;20063;-70
2022/01/05 14:48:38;;;;;;;21.35;9.77;;;;;;;;;;6125383;23;20024;-70
2022/01/05 14:51:20;;;;;;;;;;;;;;;;;;;;;
2022/01/05 14:54:04;;;;;;;17.83;11.40;;;;;;;;;;6124181;23;20092;-70
2022/01/05 14:56:40;;;;;;;19.70;11.32;;;;;;;;;;6099965;23;20005;-71